Ankara/Etimesgut, Turkey
Current Conditions -  °F | °C
As of 5:50 PM on Saturday 25 Oct 2014 (Local Time) from LTAC Reporting Station
Broken Clouds Broken Clouds  
Wind Chill: 57°   Ceiling: 9000
Heat Index: 57°   Visibility: 6mi
Dew Point: 48°   Wind: 9mph
Humidity: 72%   Direction: 140°SE
Pressure: 29.97"   Gusts: NA
Location:  39.97°N, 32.68°E
Report Text: LTAC 251450Z 14008KT 9999 SCT035 BKN090 14/09 Q1015 NOSIG
Loading
Personal Weather Stations






























Interactive Weather Map
Tropical Storm Tracking
New forecast layout! Learn more

10-Day Weather Forecast

Advertisements
Track Severe Weather on mobile